createdAt,value
2017-07-24T00:02:12.462Z,3.47
2017-07-24T00:04:40.780Z,3.60
2017-07-24T00:07:09.091Z,3.33
2017-07-24T00:09:37.416Z,3.10
2017-07-24T00:12:06.511Z,3.07
2017-07-24T00:14:35.608Z,3.70
2017-07-24T00:17:04.671Z,3.30
2017-07-24T00:19:33.281Z,4.50
2017-07-24T00:22:01.570Z,4.50
2017-07-24T00:24:29.847Z,3.23
2017-07-24T00:26:59.049Z,3.70
2017-07-24T00:29:28.099Z,4.33
2017-07-24T00:31:57.223Z,4.87
2017-07-24T00:34:26.288Z,4.90
2017-07-24T00:36:54.798Z,3.13
2017-07-24T00:39:23.106Z,6.70
2017-07-24T00:41:51.426Z,3.37
2017-07-24T00:44:19.750Z,5.30
2017-07-24T00:46:48.794Z,4.07
2017-07-24T00:49:17.123Z,4.73
2017-07-24T00:51:45.444Z,4.73
2017-07-24T00:54:14.554Z,5.30
2017-07-24T00:56:42.854Z,4.40
2017-07-24T00:59:11.937Z,4.87
2017-07-24T01:01:40.208Z,3.80
2017-07-24T01:04:09.308Z,3.20
2017-07-24T01:06:38.380Z,3.57
2017-07-24T01:09:06.814Z,3.60
2017-07-24T01:11:35.110Z,4.27
2017-07-24T01:14:04.259Z,4.67
2017-07-24T01:16:32.576Z,3.90
2017-07-24T01:19:00.851Z,5.63
2017-07-24T01:21:29.192Z,4.10
2017-07-24T01:23:58.269Z,5.10
2017-07-24T01:26:26.586Z,4.10
2017-07-24T01:28:54.912Z,5.10
2017-07-24T01:31:23.231Z,7.27
2017-07-24T01:33:51.526Z,6.23
2017-07-24T01:36:19.832Z,5.87
2017-07-24T01:38:48.127Z,4.33
2017-07-24T01:41:17.218Z,5.40
2017-07-24T01:43:45.534Z,8.17
2017-07-24T01:46:14.583Z,5.70
2017-07-24T01:48:42.911Z,5.07
2017-07-24T01:51:11.194Z,5.17
2017-07-24T01:53:39.549Z,6.73
2017-07-24T01:56:07.852Z,7.43
2017-07-24T01:58:36.194Z,4.60
2017-07-24T02:01:05.254Z,3.40
2017-07-24T02:03:33.590Z,4.57
2017-07-24T02:06:01.897Z,4.70
2017-07-24T02:08:30.315Z,3.83
2017-07-24T02:10:59.408Z,6.90
2017-07-24T02:13:28.471Z,5.00
2017-07-24T02:15:56.802Z,6.30
2017-07-24T02:18:25.093Z,6.20
2017-07-24T02:20:53.427Z,5.63
2017-07-24T02:23:21.708Z,6.00
2017-07-24T02:25:50.093Z,3.43
2017-07-24T02:28:19.178Z,4.23
2017-07-24T02:30:48.265Z,4.90
2017-07-24T02:33:16.565Z,4.30
2017-07-24T02:35:45.146Z,5.20
2017-07-24T02:38:14.447Z,3.47
2017-07-24T02:40:43.515Z,4.97
2017-07-24T02:43:12.621Z,3.80
2017-07-24T02:45:41.097Z,5.63
2017-07-24T02:48:10.441Z,4.97
2017-07-24T02:50:38.737Z,4.10
2017-07-24T02:53:07.394Z,4.00
2017-07-24T02:55:35.786Z,4.83
2017-07-24T02:58:04.224Z,5.90
2017-07-24T03:00:33.299Z,6.30
2017-07-24T03:03:01.623Z,7.37
2017-07-24T03:05:29.974Z,6.20
2017-07-24T03:07:58.556Z,7.43
2017-07-24T03:10:27.646Z,8.07
2017-07-24T03:12:55.981Z,9.20
2017-07-24T03:15:24.311Z,6.73
2017-07-24T03:17:53.375Z,7.27
2017-07-24T03:20:21.682Z,6.63
2017-07-24T03:22:49.958Z,7.07
2017-07-24T03:25:19.142Z,6.20
2017-07-24T03:27:48.219Z,5.93
2017-07-24T03:30:16.825Z,6.40
2017-07-24T03:32:45.915Z,7.50
2017-07-24T03:35:15.014Z,6.07
2017-07-24T03:37:43.346Z,5.40
2017-07-24T03:40:11.672Z,5.97
2017-07-24T03:42:40.043Z,4.57
2017-07-24T03:45:09.115Z,6.30
2017-07-24T03:47:38.231Z,6.63
2017-07-24T03:50:07.339Z,6.17
2017-07-24T03:52:36.535Z,6.43
2017-07-24T03:55:04.835Z,5.80
2017-07-24T03:57:33.154Z,5.53
2017-07-24T04:00:01.451Z,5.30
2017-07-24T04:02:29.746Z,5.73
2017-07-24T04:04:58.123Z,5.87
2017-07-24T04:07:26.894Z,5.23
2017-07-24T04:09:55.965Z,5.30
2017-07-24T04:12:24.262Z,8.83
2017-07-24T04:14:53.349Z,9.63
2017-07-24T04:17:22.443Z,8.50
2017-07-24T04:19:50.738Z,7.20
2017-07-24T04:22:19.798Z,6.63
2017-07-24T04:24:48.113Z,8.53
2017-07-24T04:27:17.184Z,6.50
2017-07-24T04:29:45.589Z,8.83
2017-07-24T04:32:13.886Z,6.57
2017-07-24T04:34:42.184Z,6.30
2017-07-24T04:37:10.487Z,6.80
2017-07-24T04:39:38.783Z,7.00
2017-07-24T04:42:07.858Z,6.60
2017-07-24T04:44:36.151Z,7.50
2017-07-24T04:47:04.495Z,8.80
2017-07-24T04:49:32.787Z,6.80
2017-07-24T04:52:01.388Z,7.43
2017-07-24T04:54:29.667Z,8.10
2017-07-24T04:56:58.733Z,7.67
2017-07-24T04:59:27.063Z,7.20
2017-07-24T05:01:55.365Z,11.00
2017-07-24T05:04:23.698Z,10.23
2017-07-24T05:06:51.998Z,11.83
2017-07-24T05:09:20.347Z,11.83
2017-07-24T05:11:48.661Z,13.07
2017-07-24T05:14:17.000Z,10.93
2017-07-24T05:16:46.050Z,11.70
2017-07-24T05:19:14.378Z,9.83
2017-07-24T05:21:42.677Z,8.70
2017-07-24T05:24:11.031Z,7.17
2017-07-24T05:26:40.118Z,7.23
2017-07-24T05:29:09.347Z,7.33
2017-07-24T05:31:37.639Z,7.23
2017-07-24T05:34:05.934Z,7.93
2017-07-24T05:36:34.357Z,10.13
2017-07-24T05:39:02.667Z,7.20
2017-07-24T05:41:30.991Z,8.70
2017-07-24T05:44:00.086Z,6.07
2017-07-24T05:46:28.471Z,8.20
2017-07-24T05:48:57.566Z,11.00
2017-07-24T05:51:26.760Z,9.53
2017-07-24T05:53:55.865Z,8.63
2017-07-24T05:56:24.455Z,12.70
2017-07-24T05:58:53.514Z,11.60
2017-07-24T06:01:21.821Z,14.30
2017-07-24T06:03:50.200Z,15.40
2017-07-24T06:06:19.254Z,17.50
2017-07-24T06:08:47.663Z,16.10
2017-07-24T06:11:16.754Z,15.43
2017-07-24T06:13:45.101Z,13.33
2017-07-24T06:16:13.511Z,13.97
2017-07-24T06:18:41.894Z,12.10
2017-07-24T06:21:11.333Z,18.40
2017-07-24T06:23:39.653Z,17.30
2017-07-24T06:26:07.951Z,19.67
2017-07-24T06:28:37.146Z,16.53
2017-07-24T06:31:06.210Z,15.60
2017-07-24T06:33:34.521Z,15.60
2017-07-24T06:36:03.608Z,14.53
2017-07-24T06:38:32.679Z,13.07
2017-07-24T06:41:01.014Z,13.73
2017-07-24T06:43:29.317Z,12.40
2017-07-24T06:45:57.769Z,15.47
2017-07-24T06:48:26.075Z,16.17
2017-07-24T06:50:54.377Z,20.97
2017-07-24T06:53:23.472Z,13.97
2017-07-24T06:55:52.559Z,19.93
2017-07-24T06:58:20.895Z,16.60
2017-07-24T07:00:49.210Z,14.90
2017-07-24T07:03:18.407Z,22.17
2017-07-24T07:05:46.715Z,31.13
2017-07-24T07:08:15.146Z,24.50
2017-07-24T07:10:43.462Z,22.57
2017-07-24T07:13:11.974Z,19.53
2017-07-24T07:15:40.348Z,20.47
2017-07-24T07:18:08.654Z,21.50
2017-07-24T07:20:37.018Z,13.77
2017-07-24T07:23:05.333Z,11.40
2017-07-24T07:25:34.650Z,12.60
2017-07-24T07:28:03.747Z,11.70
2017-07-24T07:30:32.956Z,7.50
2017-07-24T07:33:01.246Z,10.47
2017-07-24T07:35:29.551Z,15.13
2017-07-24T07:37:57.977Z,12.30
2017-07-24T07:40:26.360Z,15.47
2017-07-24T07:42:54.694Z,13.20
2017-07-24T07:45:23.112Z,10.70
2017-07-24T07:47:51.442Z,11.27
2017-07-24T07:50:19.877Z,11.23
2017-07-24T07:52:48.360Z,10.47
2017-07-24T07:55:16.729Z,10.27
2017-07-24T07:57:45.804Z,11.17
2017-07-24T08:00:14.136Z,13.00
2017-07-24T08:02:42.436Z,8.63
2017-07-24T08:05:10.842Z,8.47
2017-07-24T08:07:39.119Z,7.33
2017-07-24T08:10:08.319Z,8.00
2017-07-24T08:12:36.806Z,9.17
2017-07-24T08:15:05.900Z,8.00
2017-07-24T08:17:34.991Z,9.27
2017-07-24T08:20:04.061Z,9.73
2017-07-24T08:22:32.393Z,9.80
2017-07-24T08:25:00.671Z,6.17
2017-07-24T08:27:28.992Z,9.03
2017-07-24T08:29:57.294Z,13.23
2017-07-24T08:32:25.751Z,11.73
2017-07-24T08:34:54.052Z,7.20
2017-07-24T08:37:22.365Z,11.27
2017-07-24T08:39:50.694Z,19.90
2017-07-24T08:42:18.979Z,13.47
2017-07-24T08:44:47.330Z,11.20
2017-07-24T08:47:15.745Z,8.00
2017-07-24T08:49:44.038Z,8.47
2017-07-24T08:52:12.326Z,12.70
2017-07-24T08:54:40.937Z,19.67
2017-07-24T08:57:09.222Z,18.73
2017-07-24T08:59:37.539Z,11.10
2017-07-24T09:02:05.902Z,14.90
2017-07-24T09:04:34.280Z,8.47
2017-07-24T09:07:02.779Z,12.33
2017-07-24T09:09:31.087Z,14.60
2017-07-24T09:11:59.534Z,17.80
2017-07-24T09:14:27.835Z,13.07
2017-07-24T09:16:56.292Z,14.13
2017-07-24T09:19:24.603Z,12.07
2017-07-24T09:21:52.940Z,11.10
2017-07-24T09:24:21.231Z,11.50
2017-07-24T09:26:49.584Z,7.57
2017-07-24T09:29:17.912Z,9.97
2017-07-24T09:31:46.290Z,10.47
2017-07-24T09:34:14.990Z,11.47
2017-07-24T09:36:43.607Z,10.87
2017-07-24T09:39:11.926Z,15.20
2017-07-24T09:41:40.260Z,11.97
2017-07-24T09:44:08.602Z,9.70
2017-07-24T09:46:36.932Z,9.77
2017-07-24T09:49:05.511Z,12.00
2017-07-24T09:51:33.814Z,9.60
2017-07-24T09:54:02.149Z,9.63
2017-07-24T09:56:30.471Z,8.03
2017-07-24T09:58:59.115Z,6.93
2017-07-24T10:01:27.890Z,7.50
2017-07-24T10:03:56.954Z,8.50
2017-07-24T10:06:25.281Z,7.90
2017-07-24T10:08:53.654Z,6.10
2017-07-24T10:11:22.223Z,7.83
2017-07-24T10:13:50.820Z,7.63
2017-07-24T10:16:19.186Z,8.47
2017-07-24T10:18:47.569Z,6.70
2017-07-24T10:21:16.682Z,8.23
2017-07-24T10:23:45.035Z,9.73
2017-07-24T10:26:14.087Z,8.83
2017-07-24T10:28:42.406Z,9.30
2017-07-24T10:31:10.793Z,6.60
2017-07-24T10:33:39.314Z,6.73
2017-07-24T10:36:07.602Z,7.60
2017-07-24T10:38:35.885Z,8.90
2017-07-24T10:41:04.228Z,12.30
2017-07-24T10:43:32.551Z,7.00
2017-07-24T10:46:00.863Z,9.17
2017-07-24T10:48:29.162Z,7.07
2017-07-24T10:50:57.491Z,8.77
2017-07-24T10:53:25.814Z,8.97
2017-07-24T10:55:54.170Z,8.63
2017-07-24T10:58:22.450Z,9.07
2017-07-24T11:00:51.840Z,7.90
2017-07-24T11:03:20.126Z,7.80
2017-07-24T11:05:49.169Z,7.90
2017-07-24T11:08:17.487Z,9.10
2017-07-24T11:10:46.539Z,9.47
2017-07-24T11:13:14.948Z,9.33
2017-07-24T11:15:43.264Z,9.20
2017-07-24T11:18:11.717Z,9.80
2017-07-24T11:20:40.090Z,10.00
2017-07-24T11:23:08.491Z,9.70
2017-07-24T11:25:36.786Z,10.27
2017-07-24T11:28:05.214Z,9.03
2017-07-24T11:30:33.496Z,9.47
2017-07-24T11:33:02.793Z,9.00
2017-07-24T11:35:31.879Z,8.00
2017-07-24T11:38:00.180Z,8.07
2017-07-24T11:40:29.342Z,9.27
2017-07-24T11:42:57.624Z,9.20
2017-07-24T11:45:26.222Z,8.90
2017-07-24T11:47:54.539Z,9.87
2017-07-24T11:50:22.853Z,9.40
2017-07-24T11:52:51.248Z,8.47
2017-07-24T11:55:19.681Z,9.27
2017-07-24T11:57:47.995Z,8.70
2017-07-24T12:00:16.398Z,7.90
2017-07-24T12:02:45.466Z,7.53
2017-07-24T12:05:13.759Z,7.60
2017-07-24T12:07:42.204Z,7.40
2017-07-24T12:10:10.495Z,7.00
2017-07-24T12:12:38.801Z,8.30
2017-07-24T12:15:07.878Z,8.40
2017-07-24T12:17:36.951Z,9.73
2017-07-24T12:20:05.339Z,9.03
2017-07-24T12:22:33.623Z,9.60
2017-07-24T12:25:02.722Z,9.10
2017-07-24T12:27:31.829Z,8.83
2017-07-24T12:30:00.304Z,7.20
2017-07-24T12:32:29.366Z,9.27
2017-07-24T12:34:57.787Z,8.20
2017-07-24T12:37:26.074Z,9.97
2017-07-24T12:39:54.374Z,9.20
2017-07-24T12:42:22.676Z,7.77
2017-07-24T12:44:50.961Z,8.57
2017-07-24T12:47:19.414Z,8.70
2017-07-24T12:49:47.779Z,7.80
2017-07-24T12:52:16.054Z,10.43
2017-07-24T12:54:44.394Z,11.70
2017-07-24T12:57:13.447Z,8.23
2017-07-24T12:59:41.780Z,9.70
2017-07-24T13:02:10.830Z,10.57
2017-07-24T13:04:39.299Z,10.23
2017-07-24T13:07:07.603Z,10.27
2017-07-24T13:09:35.899Z,9.87
2017-07-24T13:12:04.996Z,9.83
2017-07-24T13:14:33.406Z,10.53
2017-07-24T13:17:01.770Z,9.80
2017-07-24T13:19:30.297Z,9.80
2017-07-24T13:21:58.629Z,10.67
2017-07-24T13:24:26.958Z,8.90
2017-07-24T13:26:56.085Z,7.03
2017-07-24T13:29:25.114Z,7.80
2017-07-24T13:31:53.588Z,9.10
2017-07-24T13:34:21.890Z,8.07
2017-07-24T13:36:50.190Z,9.37
2017-07-24T13:39:18.500Z,7.40
2017-07-24T13:41:46.804Z,8.90
2017-07-24T13:44:15.137Z,6.83
2017-07-24T13:46:43.459Z,7.53
2017-07-24T13:49:11.787Z,7.73
2017-07-24T13:51:40.884Z,7.77
2017-07-24T13:54:09.993Z,15.13
2017-07-24T13:56:38.298Z,11.37
2017-07-24T13:59:06.680Z,12.13
2017-07-24T14:01:35.106Z,12.57
2017-07-24T14:04:03.708Z,14.30
2017-07-24T14:06:32.534Z,12.80
2017-07-24T14:09:00.830Z,14.07
2017-07-24T14:11:29.930Z,13.27
2017-07-24T14:13:59.011Z,13.50
2017-07-24T14:16:27.518Z,12.10
2017-07-24T14:18:56.603Z,14.63
2017-07-24T14:21:25.809Z,16.60
2017-07-24T14:23:54.890Z,16.43
2017-07-24T14:26:23.221Z,15.43
2017-07-24T14:28:51.531Z,14.10
2017-07-24T14:31:21.179Z,14.43
2017-07-24T14:33:49.557Z,20.27
2017-07-24T14:36:17.927Z,13.90
2017-07-24T14:38:47.569Z,13.87
2017-07-24T14:41:15.883Z,17.10
2017-07-24T14:43:45.026Z,14.87
2017-07-24T14:46:13.347Z,18.97
2017-07-24T14:48:42.475Z,19.20
2017-07-24T14:51:11.589Z,15.37
2017-07-24T14:53:41.256Z,16.23
2017-07-24T14:56:10.350Z,17.97
2017-07-24T14:58:38.867Z,15.50
2017-07-24T15:01:07.929Z,17.23
2017-07-24T15:03:36.208Z,17.00
2017-07-24T15:06:04.522Z,16.20
2017-07-24T15:08:32.891Z,17.60
2017-07-24T15:11:01.230Z,16.70
2017-07-24T15:13:29.524Z,17.30
2017-07-24T15:15:58.629Z,17.00
2017-07-24T15:18:27.714Z,16.50
2017-07-24T15:20:56.905Z,19.47
2017-07-24T15:23:25.222Z,17.03
2017-07-24T15:25:53.511Z,15.50
2017-07-24T15:28:22.055Z,16.80
2017-07-24T15:30:50.384Z,15.97
2017-07-24T15:33:18.704Z,15.90
2017-07-24T15:35:47.031Z,14.63
2017-07-24T15:38:15.372Z,18.23
2017-07-24T15:40:43.674Z,16.53
2017-07-24T15:43:12.093Z,17.40
2017-07-24T15:45:40.438Z,16.00
2017-07-24T15:48:08.770Z,15.40
2017-07-24T15:50:37.111Z,17.40
2017-07-24T15:53:05.410Z,19.10
2017-07-24T15:55:33.726Z,18.70
2017-07-24T15:58:02.840Z,18.93
2017-07-24T16:00:31.374Z,19.87
2017-07-24T16:03:00.488Z,23.37
2017-07-24T16:05:29.547Z,23.20
2017-07-24T16:07:58.672Z,21.47
2017-07-24T16:10:28.043Z,26.60
2017-07-24T16:12:56.663Z,24.57
2017-07-24T16:15:24.974Z,26.73
2017-07-24T16:17:53.424Z,18.97
2017-07-24T16:20:21.722Z,20.27
2017-07-24T16:22:50.018Z,19.97
2017-07-24T16:25:18.374Z,15.87
2017-07-24T16:27:46.838Z,15.53
2017-07-24T16:30:15.206Z,15.87
2017-07-24T16:32:43.518Z,15.70
2017-07-24T16:35:13.006Z,17.20
2017-07-24T16:37:41.343Z,16.03
2017-07-24T16:40:09.651Z,11.90
2017-07-24T16:42:38.714Z,15.53
2017-07-24T16:45:07.179Z,12.60
2017-07-24T16:47:35.463Z,14.20
2017-07-24T16:50:04.568Z,12.97
2017-07-24T16:52:33.668Z,13.03
2017-07-24T16:55:02.013Z,12.90
2017-07-24T16:57:30.423Z,10.60
2017-07-24T16:59:59.503Z,12.67
2017-07-24T17:02:27.854Z,11.27
2017-07-24T17:04:56.174Z,11.17
2017-07-24T17:07:24.854Z,12.93
2017-07-24T17:09:53.189Z,12.10
2017-07-24T17:12:21.695Z,12.97
2017-07-24T17:14:50.802Z,12.43
2017-07-24T17:17:19.874Z,12.50
2017-07-24T17:19:48.205Z,12.83
2017-07-24T17:22:16.516Z,10.43
2017-07-24T17:24:44.857Z,10.63
2017-07-24T17:27:13.157Z,10.90
2017-07-24T17:29:41.508Z,10.77
2017-07-24T17:32:09.832Z,10.33
2017-07-24T17:34:38.269Z,10.93
2017-07-24T17:37:06.573Z,12.27
2017-07-24T17:39:34.913Z,10.73
2017-07-24T17:42:03.259Z,10.63
2017-07-24T17:44:31.558Z,11.37
2017-07-24T17:47:00.641Z,11.50
2017-07-24T17:49:29.714Z,10.17
2017-07-24T17:51:58.020Z,10.57
2017-07-24T17:54:26.340Z,11.43
2017-07-24T17:56:54.675Z,12.83
2017-07-24T17:59:23.064Z,11.43
2017-07-24T18:01:51.414Z,11.63
2017-07-24T18:04:19.782Z,13.30
2017-07-24T18:06:48.110Z,12.00
2017-07-24T18:09:16.407Z,12.57
2017-07-24T18:11:44.747Z,13.90
2017-07-24T18:14:13.057Z,11.70
2017-07-24T18:16:41.355Z,13.57
2017-07-24T18:19:09.672Z,12.13
2017-07-24T18:21:38.740Z,10.90
2017-07-24T18:24:07.094Z,12.10
2017-07-24T18:26:35.390Z,13.47
2017-07-24T18:29:04.018Z,12.23
2017-07-24T18:31:32.347Z,10.63
2017-07-24T18:34:00.677Z,12.57
2017-07-24T18:36:29.017Z,13.60
2017-07-24T18:38:58.566Z,15.10
2017-07-24T18:41:26.934Z,16.70
2017-07-24T18:43:55.278Z,13.27
2017-07-24T18:46:24.369Z,14.20
2017-07-24T18:48:52.691Z,11.70
2017-07-24T18:51:21.039Z,18.83
2017-07-24T18:53:49.382Z,24.10
2017-07-24T18:56:18.502Z,20.60
2017-07-24T18:58:46.830Z,16.33
2017-07-24T19:01:15.495Z,22.33
2017-07-24T19:03:43.807Z,13.90
2017-07-24T19:06:12.111Z,14.30
2017-07-24T19:08:41.224Z,13.90
2017-07-24T19:11:09.525Z,16.33
2017-07-24T19:13:37.879Z,21.23
2017-07-24T19:16:06.206Z,15.90
2017-07-24T19:18:34.555Z,19.20
2017-07-24T19:21:02.878Z,19.80
2017-07-24T19:23:31.203Z,17.67
2017-07-24T19:25:59.504Z,15.60
2017-07-24T19:28:28.243Z,16.77
2017-07-24T19:30:57.319Z,18.07
2017-07-24T19:33:25.626Z,15.90
2017-07-24T19:35:54.322Z,19.47
2017-07-24T19:38:22.624Z,23.10
2017-07-24T19:40:50.970Z,21.17
2017-07-24T19:43:19.301Z,18.20
2017-07-24T19:45:47.758Z,17.10
2017-07-24T19:48:16.060Z,20.23
2017-07-24T19:50:44.376Z,18.20
2017-07-24T19:53:12.698Z,17.77
2017-07-24T19:55:41.132Z,20.27
2017-07-24T19:58:10.212Z,18.53
2017-07-24T20:00:38.558Z,19.53
2017-07-24T20:03:06.977Z,19.90
2017-07-24T20:05:36.032Z,16.47
2017-07-24T20:08:04.355Z,16.30
2017-07-24T20:10:32.698Z,16.23
2017-07-24T20:13:01.936Z,18.10
2017-07-24T20:15:30.286Z,16.30
2017-07-24T20:17:59.382Z,16.73
2017-07-24T20:20:27.694Z,15.67
2017-07-24T20:22:56.005Z,17.37
2017-07-24T20:25:24.343Z,15.20
2017-07-24T20:27:52.647Z,14.50
2017-07-24T20:30:20.979Z,16.50
2017-07-24T20:32:49.355Z,15.67
2017-07-24T20:35:17.841Z,16.50
2017-07-24T20:37:46.207Z,16.17
2017-07-24T20:40:15.294Z,15.93
2017-07-24T20:42:44.499Z,17.57
2017-07-24T20:45:13.586Z,16.80
2017-07-24T20:47:41.928Z,17.40
2017-07-24T20:50:10.258Z,17.30
2017-07-24T20:52:38.586Z,18.47
2017-07-24T20:55:06.914Z,22.30
2017-07-24T20:57:35.224Z,20.70
2017-07-24T21:00:03.566Z,18.17
2017-07-24T21:02:32.392Z,17.90
2017-07-24T21:05:00.682Z,23.37
2017-07-24T21:07:29.001Z,19.40
2017-07-24T21:09:57.778Z,20.90
2017-07-24T21:12:26.272Z,23.63
2017-07-24T21:14:55.314Z,25.20
2017-07-24T21:17:23.626Z,21.27
2017-07-24T21:19:51.986Z,21.00
2017-07-24T21:22:20.275Z,21.53
2017-07-24T21:24:49.370Z,23.17
2017-07-24T21:27:18.456Z,24.93
2017-07-24T21:29:46.862Z,24.87
2017-07-24T21:32:15.920Z,25.27
2017-07-24T21:34:44.245Z,28.17
2017-07-24T21:37:12.555Z,24.77
2017-07-24T21:39:40.869Z,24.70
2017-07-24T21:42:09.250Z,23.87
2017-07-24T21:44:38.346Z,27.33
2017-07-24T21:47:06.709Z,24.10
2017-07-24T21:49:35.136Z,26.37
2017-07-24T21:52:03.483Z,22.03
2017-07-24T21:54:32.570Z,22.97
2017-07-24T21:57:00.962Z,28.50
2017-07-24T21:59:30.275Z,26.50
2017-07-24T22:01:58.651Z,26.03
2017-07-24T22:04:26.953Z,29.17
2017-07-24T22:06:55.255Z,27.20
2017-07-24T22:09:24.360Z,25.07
2017-07-24T22:11:52.680Z,27.40
2017-07-24T22:14:20.987Z,25.67
2017-07-24T22:16:49.431Z,25.00
2017-07-24T22:19:17.734Z,24.67
2017-07-24T22:21:46.046Z,21.53
2017-07-24T22:24:14.369Z,23.77
2017-07-24T22:26:42.691Z,23.33
2017-07-24T22:29:11.045Z,24.97
2017-07-24T22:31:39.339Z,23.77
2017-07-24T22:34:07.954Z,28.90
2017-07-24T22:36:36.249Z,24.37
2017-07-24T22:39:05.383Z,25.80
2017-07-24T22:41:33.710Z,27.67
2017-07-24T22:44:02.035Z,31.57
2017-07-24T22:46:30.360Z,33.53
2017-07-24T22:48:59.414Z,27.80
2017-07-24T22:51:27.935Z,26.30
2017-07-24T22:53:56.994Z,29.57
2017-07-24T22:56:25.317Z,29.60
2017-07-24T22:58:54.394Z,22.50
2017-07-24T23:01:22.733Z,23.30
2017-07-24T23:03:51.080Z,20.27
2017-07-24T23:06:19.429Z,22.00
2017-07-24T23:08:47.889Z,20.30
2017-07-24T23:11:16.208Z,20.30
2017-07-24T23:13:45.289Z,19.33
2017-07-24T23:16:13.598Z,21.73
2017-07-24T23:18:42.039Z,21.90
2017-07-24T23:21:10.424Z,21.80
2017-07-24T23:23:38.798Z,22.37
2017-07-24T23:26:07.617Z,22.43
2017-07-24T23:28:36.166Z,22.80
2017-07-24T23:31:04.502Z,18.17
2017-07-24T23:33:33.599Z,23.10
2017-07-24T23:36:01.927Z,22.47
2017-07-24T23:38:30.294Z,24.23
2017-07-24T23:40:59.483Z,21.27
2017-07-24T23:43:28.563Z,20.70
2017-07-24T23:45:57.680Z,21.80
2017-07-24T23:48:26.746Z,22.53
2017-07-24T23:50:55.078Z,21.20
2017-07-24T23:53:23.431Z,19.80
2017-07-24T23:55:52.215Z,19.83
2017-07-24T23:58:21.292Z,18.80
